sensor_id;sensor_type;location;lat;lon;timestamp;temperature;humidity
20162;DHT22;51382;53.180;15.414;2023-02-28T00:13:51;-2.60;99.90
20162;DHT22;51382;53.180;15.414;2023-02-28T00:29:02;-0.60;99.90
20162;DHT22;51382;53.180;15.414;2023-02-28T00:44:13;-2.80;99.90
20162;DHT22;51382;53.180;15.414;2023-02-28T00:59:24;-3.40;99.90
20162;DHT22;51382;53.180;15.414;2023-02-28T01:14:36;-3.30;99.90
20162;DHT22;51382;53.180;15.414;2023-02-28T01:29:47;-3.00;99.90
20162;DHT22;51382;53.180;15.414;2023-02-28T01:45:01;-3.00;99.90
20162;DHT22;51382;53.180;15.414;2023-02-28T02:00:26;-3.10;99.90
20162;DHT22;51382;53.180;15.414;2023-02-28T02:15:39;-3.10;99.90
20162;DHT22;51382;53.180;15.414;2023-02-28T02:46:51;-3.70;99.90
20162;DHT22;51382;53.180;15.414;2023-02-28T03:02:08;-3.80;99.90
20162;DHT22;51382;53.180;15.414;2023-02-28T03:17:30;-3.70;99.90
20162;DHT22;51382;53.180;15.414;2023-02-28T03:33:09;-3.90;99.90
20162;DHT22;51382;53.180;15.414;2023-02-28T03:48:24;-4.10;99.90
20162;DHT22;51382;53.180;15.414;2023-02-28T04:03:41;-4.10;99.90
20162;DHT22;51382;53.180;15.414;2023-02-28T04:18:52;-4.20;99.90
20162;DHT22;51382;53.180;15.414;2023-02-28T04:34:09;-4.40;99.90
20162;DHT22;51382;53.180;15.414;2023-02-28T04:49:21;-4.40;99.90
20162;DHT22;51382;53.180;15.414;2023-02-28T05:04:27;-4.60;99.90
20162;DHT22;51382;53.180;15.414;2023-02-28T05:19:42;-4.70;99.90
20162;DHT22;51382;53.180;15.414;2023-02-28T05:34:53;-4.70;99.90
20162;DHT22;51382;53.180;15.414;2023-02-28T05:49:59;-4.60;99.90
20162;DHT22;51382;53.180;15.414;2023-02-28T06:05:11;-4.60;99.90
20162;DHT22;51382;53.180;15.414;2023-02-28T06:20:19;-4.30;99.90
20162;DHT22;51382;53.180;15.414;2023-02-28T06:35:31;-4.00;99.90
20162;DHT22;51382;53.180;15.414;2023-02-28T06:50:38;-3.30;99.90
20162;DHT22;51382;53.180;15.414;2023-02-28T07:05:47;5.30;99.90
20162;DHT22;51382;53.180;15.414;2023-02-28T07:21:01;6.50;99.90
20162;DHT22;51382;53.180;15.414;2023-02-28T07:36:14;7.50;98.30
20162;DHT22;51382;53.180;15.414;2023-02-28T07:51:27;9.30;96.90
20162;DHT22;51382;53.180;15.414;2023-02-28T08:06:39;11.80;89.00
20162;DHT22;51382;53.180;15.414;2023-02-28T08:21:50;15.50;66.00
20162;DHT22;51382;53.180;15.414;2023-02-28T08:37:01;17.40;51.20
20162;DHT22;51382;53.180;15.414;2023-02-28T08:52:13;18.70;51.20
20162;DHT22;51382;53.180;15.414;2023-02-28T09:07:19;16.40;52.90
20162;DHT22;51382;53.180;15.414;2023-02-28T09:22:30;3.60;95.30
20162;DHT22;51382;53.180;15.414;2023-02-28T09:37:42;5.40;92.40
20162;DHT22;51382;53.180;15.414;2023-02-28T09:52:54;9.50;79.10
20162;DHT22;51382;53.180;15.414;2023-02-28T10:08:09;10.00;68.10
20162;DHT22;51382;53.180;15.414;2023-02-28T10:23:25;7.10;76.70
20162;DHT22;51382;53.180;15.414;2023-02-28T10:38:40;7.10;76.60
20162;DHT22;51382;53.180;15.414;2023-02-28T10:53:53;12.60;54.30
20162;DHT22;51382;53.180;15.414;2023-02-28T11:09:05;9.20;62.40
20162;DHT22;51382;53.180;15.414;2023-02-28T11:24:31;4.30;82.30
20162;DHT22;51382;53.180;15.414;2023-02-28T11:39:45;4.50;81.80
20162;DHT22;51382;53.180;15.414;2023-02-28T11:55:05;4.80;82.20
20162;DHT22;51382;53.180;15.414;2023-02-28T12:10:23;4.60;82.60
20162;DHT22;51382;53.180;15.414;2023-02-28T12:25:42;4.70;81.60
20162;DHT22;51382;53.180;15.414;2023-02-28T12:41:00;4.80;81.40
20162;DHT22;51382;53.180;15.414;2023-02-28T12:56:19;4.50;85.90
20162;DHT22;51382;53.180;15.414;2023-02-28T13:11:40;4.20;83.40
20162;DHT22;51382;53.180;15.414;2023-02-28T13:42:36;4.30;82.80
20162;DHT22;51382;53.180;15.414;2023-02-28T13:58:04;4.40;80.40
20162;DHT22;51382;53.180;15.414;2023-02-28T14:13:46;4.40;82.30
20162;DHT22;51382;53.180;15.414;2023-02-28T14:29:07;4.30;80.60
20162;DHT22;51382;53.180;15.414;2023-02-28T14:44:30;4.30;82.70
20162;DHT22;51382;53.180;15.414;2023-02-28T14:59:42;4.20;82.90
20162;DHT22;51382;53.180;15.414;2023-02-28T15:14:53;3.90;88.00
20162;DHT22;51382;53.180;15.414;2023-02-28T15:30:06;4.00;90.50
20162;DHT22;51382;53.180;15.414;2023-02-28T15:45:28;4.70;91.90
20162;DHT22;51382;53.180;15.414;2023-02-28T16:00:59;3.40;91.50
20162;DHT22;51382;53.180;15.414;2023-02-28T16:16:16;2.40;95.40
20162;DHT22;51382;53.180;15.414;2023-02-28T16:31:29;1.70;97.10
20162;DHT22;51382;53.180;15.414;2023-02-28T16:46:42;0.80;99.90
20162;DHT22;51382;53.180;15.414;2023-02-28T17:01:54;0.10;99.90
20162;DHT22;51382;53.180;15.414;2023-02-28T17:17:06;-0.40;99.90
20162;DHT22;51382;53.180;15.414;2023-02-28T17:32:25;-0.50;99.90
20162;DHT22;51382;53.180;15.414;2023-02-28T17:47:37;-0.60;99.90
20162;DHT22;51382;53.180;15.414;2023-02-28T18:02:48;-1.10;99.90
20162;DHT22;51382;53.180;15.414;2023-02-28T18:18:00;-1.40;99.90
20162;DHT22;51382;53.180;15.414;2023-02-28T18:33:15;-1.70;99.90
20162;DHT22;51382;53.180;15.414;2023-02-28T18:48:27;-1.90;99.90
20162;DHT22;51382;53.180;15.414;2023-02-28T19:03:35;-2.00;99.90
20162;DHT22;51382;53.180;15.414;2023-02-28T19:18:41;-2.00;99.90
20162;DHT22;51382;53.180;15.414;2023-02-28T19:33:53;-2.20;99.90
20162;DHT22;51382;53.180;15.414;2023-02-28T19:49:04;-2.10;99.90
20162;DHT22;51382;53.180;15.414;2023-02-28T20:04:16;-2.40;99.90
20162;DHT22;51382;53.180;15.414;2023-02-28T20:19:28;-2.40;99.90
20162;DHT22;51382;53.180;15.414;2023-02-28T20:34:39;-2.80;99.90
20162;DHT22;51382;53.180;15.414;2023-02-28T20:49:51;-2.70;99.90
20162;DHT22;51382;53.180;15.414;2023-02-28T21:05:02;-3.00;99.90
20162;DHT22;51382;53.180;15.414;2023-02-28T21:20:14;-3.10;99.90
20162;DHT22;51382;53.180;15.414;2023-02-28T21:35:30;-3.00;99.90
20162;DHT22;51382;53.180;15.414;2023-02-28T21:50:41;-2.90;99.90
20162;DHT22;51382;53.180;15.414;2023-02-28T22:06:09;-3.00;99.90
20162;DHT22;51382;53.180;15.414;2023-02-28T22:21:22;-3.10;99.90
20162;DHT22;51382;53.180;15.414;2023-02-28T22:36:33;-3.30;99.90
20162;DHT22;51382;53.180;15.414;2023-02-28T22:51:45;-3.40;99.90
20162;DHT22;51382;53.180;15.414;2023-02-28T23:06:56;-3.50;99.90
20162;DHT22;51382;53.180;15.414;2023-02-28T23:22:08;-3.50;99.90
20162;DHT22;51382;53.180;15.414;2023-02-28T23:37:19;-3.50;99.90
20162;DHT22;51382;53.180;15.414;2023-02-28T23:52:30;-3.60;99.90
